createdAt,value
2022-10-09T00:00:01.403Z,70.20
2022-10-09T00:00:33.328Z,70.60
2022-10-09T00:01:16.090Z,70.80
2022-10-09T00:01:47.838Z,72.10
2022-10-09T00:02:19.629Z,70.40
2022-10-09T00:02:51.956Z,70.60
2022-10-09T00:03:24.006Z,70.70
2022-10-09T00:03:58.303Z,70.10
2022-10-09T00:04:30.059Z,70.60
2022-10-09T00:05:01.945Z,70.70
2022-10-09T00:05:33.813Z,70.20
2022-10-09T00:06:07.872Z,70.10
2022-10-09T00:06:39.872Z,70.70
2022-10-09T00:07:11.770Z,70.80
2022-10-09T00:07:43.577Z,70.80
2022-10-09T00:08:15.412Z,70.20
2022-10-09T00:08:47.337Z,70.80
2022-10-09T00:09:19.488Z,70.20
2022-10-09T00:09:51.336Z,70.70
2022-10-09T00:10:23.351Z,70.70
2022-10-09T00:10:55.760Z,70.80
2022-10-09T00:11:29.708Z,70.10
2022-10-09T00:12:01.605Z,70.00
2022-10-09T00:12:33.613Z,71.40
2022-10-09T00:13:05.603Z,71.10
2022-10-09T00:13:38.229Z,70.60
2022-10-09T00:14:10.022Z,70.70
2022-10-09T00:14:41.932Z,70.70
2022-10-09T00:15:13.950Z,70.20
2022-10-09T00:15:47.188Z,70.90
2022-10-09T00:16:21.228Z,70.80
2022-10-09T00:16:55.029Z,70.60
2022-10-09T00:17:27.091Z,71.30
2022-10-09T00:17:58.953Z,70.70
2022-10-09T00:18:31.182Z,70.70
2022-10-09T00:19:03.402Z,70.10
2022-10-09T00:19:35.226Z,71.00
2022-10-09T00:20:07.927Z,70.60
2022-10-09T00:20:43.316Z,70.60
2022-10-09T00:21:37.929Z,70.20
2022-10-09T00:22:10.004Z,70.60
2022-10-09T00:22:43.584Z,70.60
2022-10-09T00:23:17.441Z,69.80
2022-10-09T00:23:50.668Z,71.60
2022-10-09T00:24:22.941Z,70.80
2022-10-09T00:24:54.950Z,70.30
2022-10-09T00:25:27.034Z,71.80
2022-10-09T00:26:01.590Z,70.30
2022-10-09T00:26:33.941Z,70.80
2022-10-09T00:27:05.995Z,70.80
2022-10-09T00:27:38.032Z,70.80
2022-10-09T00:28:10.004Z,70.30
2022-10-09T00:28:42.412Z,70.80
2022-10-09T00:29:14.598Z,70.90
2022-10-09T00:29:46.541Z,70.80
2022-10-09T00:30:18.371Z,70.30
2022-10-09T00:30:51.393Z,70.80
2022-10-09T00:31:23.991Z,70.70
2022-10-09T00:31:55.882Z,71.20
2022-10-09T00:32:27.946Z,70.80
2022-10-09T00:32:59.848Z,70.70
2022-10-09T00:33:31.684Z,70.90
2022-10-09T00:34:03.773Z,70.70
2022-10-09T00:34:35.683Z,70.80
2022-10-09T00:35:07.792Z,70.60
2022-10-09T00:35:40.219Z,70.60
2022-10-09T00:36:18.537Z,70.20
2022-10-09T00:36:50.564Z,70.70
2022-10-09T00:37:22.546Z,70.20
2022-10-09T00:37:54.415Z,70.20
2022-10-09T00:38:26.383Z,70.20
2022-10-09T00:38:58.545Z,71.50
2022-10-09T00:39:31.040Z,70.10
2022-10-09T00:40:03.449Z,70.70
2022-10-09T00:40:36.594Z,70.10
2022-10-09T00:41:08.864Z,70.60
2022-10-09T00:41:41.152Z,70.80
2022-10-09T00:42:14.242Z,70.80
2022-10-09T00:42:46.372Z,70.60
2022-10-09T00:43:37.607Z,70.80
2022-10-09T00:44:48.293Z,70.60
2022-10-09T00:45:22.553Z,70.70
2022-10-09T00:45:56.747Z,70.40
2022-10-09T00:46:42.123Z,70.80
2022-10-09T00:47:40.653Z,70.90
2022-10-09T05:23:01.501Z,71.20
2022-10-09T05:24:10.334Z,71.60
2022-10-09T05:24:42.509Z,71.90
2022-10-09T05:25:14.818Z,71.90
2022-10-09T05:26:32.319Z,71.80
2022-10-09T05:29:46.162Z,71.60
2022-10-09T05:43:07.026Z,71.90
2022-10-09T05:43:41.427Z,72.10
2022-10-09T05:44:13.521Z,72.30
2022-10-09T05:44:45.350Z,72.40
2022-10-09T05:45:17.145Z,72.50
2022-10-09T05:45:48.962Z,72.50
2022-10-09T05:47:29.605Z,72.80
2022-10-09T05:48:01.694Z,72.80
2022-10-09T05:48:33.826Z,72.80
2022-10-09T05:49:06.580Z,72.80
2022-10-09T05:49:38.536Z,72.90
2022-10-09T05:50:10.439Z,73.00
2022-10-09T05:50:42.427Z,73.00
2022-10-09T05:51:20.970Z,73.00
2022-10-09T05:52:25.070Z,73.10
2022-10-09T05:52:57.231Z,73.10
2022-10-09T05:53:29.221Z,73.10
2022-10-09T05:54:04.339Z,73.20
2022-10-09T05:54:36.315Z,72.20
2022-10-09T05:55:08.525Z,73.30
2022-10-09T05:55:40.674Z,73.40
2022-10-09T05:56:27.614Z,73.70
2022-10-09T05:56:59.424Z,74.00
2022-10-09T05:57:31.253Z,73.60
2022-10-09T05:58:03.497Z,73.50
2022-10-09T05:58:35.519Z,73.60
2022-10-09T05:59:09.878Z,73.70
2022-10-09T06:00:14.569Z,73.60
2022-10-09T06:00:46.653Z,74.40
2022-10-09T06:01:19.399Z,74.30
2022-10-09T06:01:52.255Z,71.40
2022-10-09T06:02:24.512Z,74.30
2022-10-09T06:02:56.731Z,73.90
2022-10-09T06:03:28.701Z,74.40
2022-10-09T06:04:01.220Z,75.30
2022-10-09T06:04:33.405Z,73.80
2022-10-09T06:05:05.601Z,74.50
2022-10-09T06:05:37.533Z,74.40
2022-10-09T06:06:09.611Z,74.60
2022-10-09T06:06:41.979Z,74.50
2022-10-09T06:07:13.817Z,74.40
2022-10-09T06:07:47.111Z,74.40
2022-10-09T06:08:19.000Z,74.40
2022-10-09T06:08:51.282Z,76.70
2022-10-09T06:09:25.635Z,74.50
2022-10-09T06:09:57.670Z,74.50
2022-10-09T06:10:32.507Z,74.50
2022-10-09T06:11:29.184Z,73.90
2022-10-09T06:12:01.129Z,74.30
2022-10-09T06:12:32.953Z,74.60
2022-10-09T06:13:04.728Z,74.90
2022-10-09T06:13:36.621Z,74.50
2022-10-09T06:14:10.816Z,76.00
2022-10-09T06:14:42.775Z,74.60
2022-10-09T06:15:14.709Z,75.20
2022-10-09T06:15:54.098Z,74.60
2022-10-09T06:16:28.370Z,76.50
2022-10-09T06:17:01.389Z,75.00
2022-10-09T06:17:34.162Z,74.60
2022-10-09T06:18:06.261Z,74.10
2022-10-09T06:18:39.617Z,74.60
2022-10-09T06:19:13.606Z,74.60
2022-10-09T06:19:45.717Z,74.60
2022-10-09T06:20:17.601Z,74.70
2022-10-09T06:21:01.786Z,74.60
2022-10-09T06:21:34.530Z,72.80
2022-10-09T06:22:06.349Z,72.90
2022-10-09T06:22:38.199Z,74.70
2022-10-09T06:23:10.072Z,75.80
2022-10-09T06:23:42.780Z,74.70
2022-10-09T06:24:26.965Z,76.00
2022-10-09T06:24:59.883Z,74.60
2022-10-09T06:25:31.649Z,76.30
2022-10-09T06:26:12.999Z,74.70
2022-10-09T06:26:44.937Z,74.70
2022-10-09T06:27:17.758Z,74.70
2022-10-09T06:27:49.713Z,76.00
2022-10-09T06:28:22.092Z,74.70
2022-10-09T06:28:53.872Z,75.00
2022-10-09T06:29:26.061Z,75.60
2022-10-09T06:29:58.077Z,74.80
2022-10-09T06:30:36.350Z,75.40
2022-10-09T06:31:16.507Z,74.80
2022-10-09T06:31:48.540Z,74.70
2022-10-09T06:32:20.303Z,74.80
2022-10-09T06:32:52.401Z,74.30
2022-10-09T06:33:24.406Z,74.90
2022-10-09T06:33:59.586Z,76.40
2022-10-09T06:34:31.623Z,74.80
2022-10-09T06:35:03.666Z,76.30
2022-10-09T06:35:35.655Z,74.80
2022-10-09T06:36:13.157Z,76.40
2022-10-09T06:36:44.965Z,74.20
2022-10-09T06:37:16.809Z,75.60
2022-10-09T06:37:48.549Z,75.30
2022-10-09T06:38:20.350Z,75.90
2022-10-09T06:38:52.911Z,74.30
2022-10-09T06:39:26.326Z,74.90
2022-10-09T06:39:58.115Z,76.20
2022-10-09T06:40:30.018Z,76.20
2022-10-09T06:41:03.792Z,74.90
2022-10-09T06:41:36.234Z,75.80
2022-10-09T06:42:17.480Z,75.70
2022-10-09T06:42:56.121Z,75.60
2022-10-09T06:43:28.409Z,75.10
2022-10-09T06:44:04.194Z,75.00
2022-10-09T06:44:35.986Z,76.70
2022-10-09T06:45:08.560Z,75.10
2022-10-09T06:45:40.424Z,75.00
2022-10-09T06:46:12.909Z,75.10
2022-10-09T06:46:48.189Z,76.70
2022-10-09T06:47:20.058Z,76.00
2022-10-09T06:47:51.879Z,74.40
2022-10-09T06:48:23.734Z,75.60
2022-10-09T06:48:56.183Z,75.10
2022-10-09T06:49:27.940Z,75.10
2022-10-09T06:49:59.694Z,74.40
2022-10-09T06:50:31.490Z,75.10
2022-10-09T06:51:12.064Z,75.60
2022-10-09T06:51:43.949Z,74.90
2022-10-09T06:52:15.720Z,75.00
2022-10-09T06:52:47.656Z,74.90
2022-10-09T06:53:19.640Z,75.00
2022-10-09T06:53:54.630Z,75.30
2022-10-09T06:54:26.389Z,75.60
2022-10-09T06:54:58.121Z,75.10
2022-10-09T06:55:29.958Z,74.60
2022-10-09T06:56:01.733Z,75.10
2022-10-09T06:56:33.512Z,76.50
2022-10-09T06:57:05.228Z,75.90
2022-10-09T06:57:37.012Z,75.80
2022-10-09T06:58:08.759Z,74.60
2022-10-09T06:58:41.098Z,75.70
2022-10-09T06:59:12.904Z,75.10
2022-10-09T06:59:44.678Z,75.20
2022-10-09T07:00:16.500Z,75.60
2022-10-09T07:00:48.584Z,75.20
2022-10-09T07:01:41.090Z,75.80
2022-10-09T07:02:12.911Z,76.30
2022-10-09T07:02:44.750Z,76.70
2022-10-09T07:03:16.528Z,75.20
2022-10-09T07:03:54.003Z,75.20
2022-10-09T07:04:25.813Z,75.10
2022-10-09T07:04:57.578Z,76.30
2022-10-09T07:05:29.305Z,75.70
2022-10-09T07:06:07.056Z,75.40
2022-10-09T07:06:41.836Z,74.80
2022-10-09T07:07:13.563Z,75.30
2022-10-09T07:08:17.515Z,74.50
2022-10-09T07:08:56.854Z,75.30
2022-10-09T07:09:28.665Z,75.10
2022-10-09T07:10:00.431Z,74.70
2022-10-09T07:10:32.386Z,74.50
2022-10-09T07:11:13.910Z,74.30
2022-10-09T07:11:50.728Z,74.40
2022-10-09T07:12:54.679Z,74.20
2022-10-09T07:13:26.419Z,74.30
2022-10-09T07:15:06.458Z,74.10
2022-10-09T07:15:45.862Z,74.20
2022-10-09T07:16:36.570Z,74.00
2022-10-09T07:17:08.488Z,73.90
2022-10-09T07:17:40.255Z,74.00
2022-10-09T07:18:12.035Z,74.00
2022-10-09T07:18:43.801Z,74.30
2022-10-09T07:19:17.547Z,74.30
2022-10-09T07:19:49.585Z,74.20
2022-10-09T07:20:53.474Z,73.90
2022-10-09T07:21:25.829Z,74.00
2022-10-09T07:21:57.613Z,74.10
2022-10-09T07:22:29.406Z,74.10
2022-10-09T07:23:01.141Z,74.20
2022-10-09T07:23:33.707Z,74.20
2022-10-09T07:24:06.251Z,74.00
2022-10-09T07:24:37.943Z,74.00
2022-10-09T07:25:11.792Z,74.10
2022-10-09T07:25:43.561Z,74.10
2022-10-09T07:26:18.723Z,74.20
2022-10-09T07:26:51.210Z,74.30
2022-10-09T07:27:23.092Z,74.30
2022-10-09T07:27:55.757Z,74.40
2022-10-09T07:28:29.587Z,74.40
2022-10-09T07:29:02.283Z,74.40
2022-10-09T07:30:07.034Z,74.60
2022-10-09T07:30:38.897Z,74.50
2022-10-09T07:31:11.883Z,74.40
2022-10-09T07:32:48.709Z,74.70
2022-10-09T07:33:20.862Z,74.60
2022-10-09T07:33:55.250Z,75.30
2022-10-09T07:34:27.058Z,74.80
2022-10-09T07:34:58.839Z,74.90
2022-10-09T07:35:30.575Z,77.40
2022-10-09T07:36:04.235Z,75.00
2022-10-09T07:36:36.312Z,75.60
2022-10-09T07:37:08.063Z,74.90
2022-10-09T07:37:39.889Z,75.00
2022-10-09T07:38:11.590Z,77.60
2022-10-09T07:38:44.598Z,75.20
2022-10-09T07:39:19.253Z,75.30
2022-10-09T07:39:50.991Z,75.40
2022-10-09T07:40:55.401Z,75.50
2022-10-09T07:41:29.443Z,75.50
2022-10-09T07:42:02.081Z,78.60
2022-10-09T07:42:33.847Z,75.60
2022-10-09T07:43:05.601Z,75.70
2022-10-09T07:43:39.468Z,75.50
2022-10-09T07:44:12.105Z,75.60
2022-10-09T07:44:43.862Z,76.10
2022-10-09T07:45:15.670Z,75.80
2022-10-09T07:45:47.771Z,75.80
2022-10-09T07:46:21.270Z,77.50
2022-10-09T07:46:53.240Z,78.20
2022-10-09T07:47:24.988Z,77.70
2022-10-09T07:47:56.713Z,76.10
2022-10-09T07:48:28.871Z,76.90
2022-10-09T07:49:01.184Z,75.00
2022-10-09T07:49:32.932Z,76.50
2022-10-09T07:50:05.134Z,76.30
2022-10-09T07:50:37.012Z,76.90
2022-10-09T07:51:11.730Z,76.30
2022-10-09T07:51:43.487Z,76.90
2022-10-09T07:52:15.334Z,76.30
2022-10-09T07:52:47.541Z,76.20
2022-10-09T07:53:19.509Z,78.40
2022-10-09T07:53:52.438Z,76.50
2022-10-09T07:54:24.198Z,76.60
2022-10-09T07:54:55.926Z,78.30
2022-10-09T07:55:27.766Z,76.60
2022-10-09T07:55:59.626Z,78.40
2022-10-09T07:56:33.788Z,77.90
2022-10-09T07:57:06.797Z,76.50
2022-10-09T07:57:38.573Z,79.40
2022-10-09T07:58:10.297Z,77.70
2022-10-09T07:58:43.160Z,76.90
2022-10-09T07:59:16.896Z,78.90
2022-10-09T07:59:48.617Z,79.60
2022-10-09T08:00:20.341Z,77.20
2022-10-09T08:00:52.108Z,77.00
2022-10-09T08:01:25.381Z,77.20
2022-10-09T08:01:57.193Z,77.70
2022-10-09T08:02:30.249Z,77.20
2022-10-09T08:03:02.085Z,78.00
2022-10-09T08:03:34.799Z,77.40
2022-10-09T08:04:06.825Z,79.00
2022-10-09T08:04:38.630Z,78.40
2022-10-09T08:05:10.584Z,77.50
2022-10-09T08:05:42.373Z,80.30
2022-10-09T08:06:14.314Z,77.80
2022-10-09T08:06:46.106Z,77.80
2022-10-09T08:07:17.819Z,77.70
2022-10-09T08:07:49.867Z,77.70
2022-10-09T08:08:21.854Z,77.50
2022-10-09T08:08:55.617Z,77.80
2022-10-09T08:09:27.367Z,79.00
2022-10-09T08:09:59.117Z,80.20
2022-10-09T08:10:32.206Z,80.40
2022-10-09T08:11:11.751Z,80.50
2022-10-09T08:11:44.509Z,79.80
2022-10-09T08:12:16.262Z,78.50
2022-10-09T08:12:48.290Z,78.40
2022-10-09T08:13:20.221Z,79.50
2022-10-09T08:13:53.098Z,78.50
2022-10-09T08:14:25.057Z,79.00
2022-10-09T08:14:56.790Z,78.50
2022-10-09T08:15:28.665Z,81.30
2022-10-09T08:16:00.553Z,81.10
2022-10-09T08:16:32.670Z,79.10
2022-10-09T08:17:04.406Z,79.20
2022-10-09T08:17:36.296Z,80.60
2022-10-09T08:18:08.898Z,79.60
2022-10-09T08:18:41.064Z,79.60
2022-10-09T08:19:12.856Z,81.00
2022-10-09T08:19:44.611Z,79.70
2022-10-09T08:20:16.399Z,79.30
2022-10-09T08:21:00.018Z,79.80
2022-10-09T08:21:32.816Z,82.40
2022-10-09T08:22:04.562Z,79.80
2022-10-09T08:22:36.322Z,79.10
2022-10-09T08:23:08.083Z,79.30
2022-10-09T08:23:39.870Z,80.40
2022-10-09T08:24:12.507Z,79.30
2022-10-09T08:24:44.472Z,80.30
2022-10-09T08:25:16.330Z,80.40
2022-10-09T08:25:49.871Z,80.80
2022-10-09T08:26:23.461Z,80.80
2022-10-09T08:26:55.159Z,81.00
2022-10-09T08:27:26.859Z,82.30
2022-10-09T08:27:58.592Z,79.70
2022-10-09T08:28:30.897Z,80.20
2022-10-09T08:29:04.774Z,79.90
2022-10-09T08:29:40.027Z,80.90
2022-10-09T08:30:12.602Z,80.60
2022-10-09T08:30:44.485Z,80.70
2022-10-09T08:31:17.637Z,81.30
2022-10-09T08:31:49.470Z,80.90
2022-10-09T08:32:21.377Z,80.20
2022-10-09T08:32:53.155Z,82.30
2022-10-09T08:33:25.938Z,80.40
2022-10-09T08:34:00.821Z,80.40
2022-10-09T08:34:32.646Z,82.10
2022-10-09T08:35:04.827Z,80.60
2022-10-09T08:35:36.587Z,81.10
2022-10-09T08:36:11.066Z,82.40
2022-10-09T08:36:42.936Z,81.20
2022-10-09T08:37:14.741Z,81.20
2022-10-09T08:37:46.512Z,81.20
2022-10-09T08:38:44.709Z,80.80
2022-10-09T08:39:10.999Z,81.20
2022-10-09T08:39:42.764Z,82.10
2022-10-09T08:40:21.462Z,81.20
2022-10-09T08:41:04.763Z,82.20
2022-10-09T08:41:54.754Z,82.60
2022-10-09T08:42:52.816Z,81.50
2022-10-09T08:43:32.413Z,82.30
2022-10-09T08:44:11.378Z,81.90
2022-10-09T08:44:49.009Z,84.00
2022-10-09T08:45:20.866Z,81.30
2022-10-09T08:45:53.342Z,81.80
2022-10-09T08:46:54.817Z,82.90
2022-10-09T08:47:40.532Z,82.00
2022-10-09T08:48:20.471Z,82.00
2022-10-09T08:48:54.835Z,81.90
2022-10-09T08:49:33.361Z,82.20
2022-10-09T08:50:16.394Z,82.80
2022-10-09T08:50:51.400Z,82.30
2022-10-09T08:51:38.072Z,81.70
2022-10-09T08:52:25.824Z,82.60
2022-10-09T08:53:11.251Z,82.60
2022-10-09T08:54:08.421Z,82.90
2022-10-09T08:54:40.243Z,83.10
2022-10-09T08:55:29.630Z,82.60
2022-10-09T08:56:04.501Z,82.90
2022-10-09T08:56:37.968Z,84.60
2022-10-09T08:57:14.025Z,82.50
2022-10-09T08:57:50.203Z,83.20
2022-10-09T08:58:32.296Z,83.20
2022-10-09T08:59:04.382Z,83.20
2022-10-09T08:59:36.306Z,84.30
2022-10-09T09:00:31.777Z,82.70
2022-10-09T09:01:26.034Z,84.40
2022-10-09T09:02:12.607Z,83.30
2022-10-09T09:02:44.432Z,83.40
2022-10-09T09:03:44.906Z,83.60
2022-10-09T09:04:22.657Z,83.50
2022-10-09T09:05:33.709Z,84.30
2022-10-09T09:06:11.137Z,83.10
2022-10-09T09:06:57.886Z,83.60
2022-10-09T09:07:44.386Z,83.70
2022-10-09T09:08:35.420Z,84.00
2022-10-09T09:09:38.126Z,83.70
2022-10-09T09:10:41.257Z,83.50
2022-10-09T09:11:38.311Z,83.60
2022-10-09T09:12:10.051Z,83.50
2022-10-09T09:12:50.333Z,82.60
2022-10-09T09:13:46.324Z,83.50
2022-10-09T09:14:36.666Z,84.90
2022-10-09T09:15:16.758Z,83.60
2022-10-09T09:16:18.086Z,83.20
2022-10-09T09:17:03.682Z,83.50
2022-10-09T09:18:15.970Z,83.50
2022-10-09T09:19:16.808Z,83.40
2022-10-09T09:20:09.243Z,83.10
2022-10-09T09:20:55.413Z,83.60
2022-10-09T09:21:38.602Z,83.20
2022-10-09T09:22:13.769Z,83.80
2022-10-09T09:22:49.129Z,83.80
2022-10-09T09:23:30.099Z,83.70
2022-10-09T09:24:12.873Z,83.80
2022-10-09T09:25:24.559Z,84.10
2022-10-09T09:25:56.868Z,85.00
2022-10-09T09:26:29.279Z,84.80
2022-10-09T09:27:10.569Z,86.50
2022-10-09T09:27:42.613Z,85.50
2022-10-09T09:28:24.132Z,86.20
2022-10-09T09:29:02.235Z,87.30
2022-10-09T09:29:43.064Z,84.60
2022-10-09T09:30:24.433Z,85.00
2022-10-09T09:31:06.132Z,85.40
2022-10-09T09:31:38.848Z,85.30
2022-10-09T09:32:24.066Z,86.30
2022-10-09T09:33:11.023Z,86.40
2022-10-09T09:33:57.837Z,87.60
2022-10-09T09:34:39.022Z,89.30
2022-10-09T09:35:24.692Z,86.70
2022-10-09T09:36:21.038Z,87.30
2022-10-09T09:36:59.059Z,88.10
2022-10-09T09:37:30.852Z,88.10
2022-10-09T09:38:02.743Z,88.90
2022-10-09T09:38:43.674Z,89.30
2022-10-09T09:40:37.277Z,89.50
2022-10-09T09:41:10.036Z,88.90
2022-10-09T09:41:43.931Z,90.20
2022-10-09T09:42:19.287Z,89.60
2022-10-09T09:42:51.632Z,89.90
2022-10-09T09:43:26.846Z,90.20
2022-10-09T09:43:58.533Z,89.10
2022-10-09T09:44:33.818Z,89.70
2022-10-09T09:45:12.778Z,90.30
2022-10-09T09:45:45.813Z,90.00
2022-10-09T09:46:29.883Z,90.40
2022-10-09T09:47:02.354Z,89.90
2022-10-09T09:47:40.144Z,90.50
2022-10-09T09:48:35.870Z,90.40
2022-10-09T09:49:23.644Z,90.30
2022-10-09T09:50:02.091Z,90.10
2022-10-09T09:50:53.119Z,90.40
2022-10-09T09:51:32.772Z,91.30
2022-10-09T09:52:09.254Z,90.60
2022-10-09T09:52:45.442Z,90.40
2022-10-09T09:53:28.851Z,91.10
2022-10-09T09:54:14.481Z,90.80
2022-10-09T09:54:49.348Z,90.70
2022-10-09T09:55:30.899Z,90.90
2022-10-09T09:56:03.276Z,91.00
2022-10-09T09:57:10.268Z,90.80
2022-10-09T09:57:40.830Z,91.60
2022-10-09T09:58:17.822Z,91.20
2022-10-09T09:58:54.979Z,91.10
2022-10-09T09:59:32.307Z,91.50
2022-10-09T10:00:22.078Z,91.30
2022-10-09T10:01:03.331Z,91.20
2022-10-09T10:01:35.649Z,91.00
2022-10-09T10:02:21.056Z,91.10
2022-10-09T10:03:16.245Z,91.40
2022-10-09T10:03:50.680Z,91.30
2022-10-09T10:04:28.048Z,90.70
2022-10-09T10:05:02.159Z,90.90
2022-10-09T10:05:38.903Z,91.40
2022-10-09T10:06:43.710Z,90.60
2022-10-09T10:07:26.622Z,90.70
2022-10-09T10:07:58.459Z,92.00
2022-10-09T10:08:33.581Z,91.10
2022-10-09T10:09:17.487Z,91.10
2022-10-09T10:10:04.698Z,90.80
2022-10-09T10:11:17.104Z,90.90
2022-10-09T10:11:48.867Z,91.10
2022-10-09T10:12:20.764Z,90.90
2022-10-09T10:12:52.865Z,91.30
2022-10-09T10:13:30.375Z,91.00
2022-10-09T10:14:12.694Z,91.30
2022-10-09T10:14:50.756Z,91.20
2022-10-09T10:15:25.921Z,91.40
2022-10-09T10:15:58.401Z,92.00
2022-10-09T10:16:35.730Z,91.30
2022-10-09T10:17:28.319Z,91.40
2022-10-09T10:18:06.588Z,91.70
2022-10-09T10:18:41.732Z,91.80
2022-10-09T10:19:25.731Z,91.90
2022-10-09T10:19:57.553Z,92.50
2022-10-09T10:20:32.918Z,92.00
2022-10-09T10:21:11.974Z,92.10
2022-10-09T10:22:00.728Z,92.20
2022-10-09T10:22:33.262Z,91.90
2022-10-09T10:23:04.991Z,92.40
2022-10-09T10:23:44.746Z,92.40
2022-10-09T10:24:24.335Z,93.10
2022-10-09T10:24:58.842Z,92.50
2022-10-09T10:25:33.875Z,92.60
2022-10-09T10:26:22.019Z,92.50
2022-10-09T10:27:12.105Z,92.50
2022-10-09T10:27:45.003Z,93.30
2022-10-09T10:28:24.847Z,92.80
2022-10-09T10:29:20.704Z,93.30
2022-10-09T10:29:59.154Z,93.00
2022-10-09T10:30:31.909Z,93.00
2022-10-09T10:31:07.888Z,93.00
2022-10-09T10:31:51.769Z,93.10
2022-10-09T10:32:26.339Z,93.00
2022-10-09T10:33:12.552Z,93.30
2022-10-09T10:33:49.449Z,93.20
2022-10-09T10:34:27.862Z,93.70
2022-10-09T10:35:04.935Z,93.20
2022-10-09T10:35:40.326Z,93.40
2022-10-09T10:36:12.176Z,93.70
2022-10-09T10:36:45.681Z,93.50
2022-10-09T10:37:41.223Z,93.30
2022-10-09T10:38:32.189Z,93.50
2022-10-09T10:39:12.990Z,93.50
2022-10-09T10:40:10.000Z,93.50
2022-10-09T10:41:01.735Z,92.60
2022-10-09T10:41:42.457Z,93.50
2022-10-09T10:42:45.632Z,93.80
2022-10-09T10:43:33.306Z,93.70
2022-10-09T10:44:18.428Z,93.80
2022-10-09T10:45:09.705Z,93.60
2022-10-09T10:45:44.255Z,93.90
2022-10-09T10:46:24.033Z,93.90
2022-10-09T10:47:03.760Z,94.10
2022-10-09T10:47:41.208Z,94.00
2022-10-09T10:48:24.854Z,94.10
2022-10-09T10:49:00.073Z,94.00
2022-10-09T10:49:34.033Z,94.00
2022-10-09T10:50:12.138Z,94.00
2022-10-09T10:51:07.309Z,94.10
2022-10-09T10:51:42.141Z,93.90
2022-10-09T10:52:32.285Z,94.70
2022-10-09T10:53:26.971Z,94.10
2022-10-09T10:54:23.736Z,94.10
2022-10-09T10:55:21.297Z,94.10
2022-10-09T10:56:04.281Z,93.90
2022-10-09T10:56:53.218Z,93.80
2022-10-09T10:57:36.062Z,94.10
2022-10-09T10:58:26.396Z,94.40
2022-10-09T10:59:31.626Z,94.00
2022-10-09T11:00:06.606Z,94.00
2022-10-09T11:00:46.846Z,94.10
2022-10-09T11:01:41.176Z,94.40
2022-10-09T11:02:39.449Z,94.00
2022-10-09T11:03:34.339Z,94.10
2022-10-09T11:04:17.427Z,94.00
2022-10-09T11:05:13.759Z,94.00
2022-10-09T11:06:14.395Z,94.00
2022-10-09T11:07:15.027Z,94.00
2022-10-09T11:08:11.845Z,93.90
2022-10-09T11:08:51.070Z,93.80
2022-10-09T11:09:35.326Z,93.80
2022-10-09T11:10:29.613Z,93.80
2022-10-09T11:11:12.830Z,93.70
2022-10-09T11:12:19.496Z,93.70
2022-10-09T11:13:12.618Z,93.50
2022-10-09T11:14:07.379Z,93.50
2022-10-09T11:14:47.991Z,93.40
2022-10-09T11:15:53.989Z,93.40
2022-10-09T11:16:46.879Z,93.50
2022-10-09T11:17:44.209Z,93.50
2022-10-09T11:18:34.619Z,93.70
2022-10-09T11:19:23.256Z,93.50
2022-10-09T11:19:54.971Z,93.60
2022-10-09T11:20:41.744Z,93.20
2022-10-09T11:21:41.361Z,93.30
2022-10-09T11:22:37.875Z,93.20
2022-10-09T11:23:34.107Z,93.20
2022-10-09T11:24:26.642Z,93.20
2022-10-09T11:25:10.340Z,93.10
2022-10-09T11:25:52.035Z,93.10
2022-10-09T11:26:53.315Z,92.60
2022-10-09T11:27:51.386Z,92.30
2022-10-09T11:28:30.458Z,92.00
2022-10-09T11:29:19.764Z,92.00
2022-10-09T11:30:04.159Z,92.10
2022-10-09T11:31:08.350Z,92.00
2022-10-09T11:31:50.564Z,91.70
2022-10-09T11:32:46.917Z,91.50
2022-10-09T11:33:50.929Z,91.10
2022-10-09T11:34:30.380Z,91.10
2022-10-09T11:35:04.379Z,90.90
2022-10-09T12:51:26.812Z,79.40
2022-10-09T12:52:00.748Z,79.50
2022-10-09T12:52:32.612Z,79.90
2022-10-09T12:53:14.459Z,79.90
2022-10-09T12:53:51.478Z,80.10
2022-10-09T12:54:25.091Z,80.20
2022-10-09T12:54:56.937Z,80.30
2022-10-09T12:55:35.011Z,80.20
2022-10-09T12:56:12.813Z,80.20
2022-10-09T12:56:45.110Z,80.30
2022-10-09T12:57:18.135Z,80.20
2022-10-09T12:57:51.435Z,80.20
2022-10-09T12:58:32.201Z,80.20
2022-10-09T12:59:06.283Z,80.60
2022-10-09T12:59:38.141Z,80.20
2022-10-09T13:00:14.838Z,80.10
2022-10-09T13:01:02.095Z,80.20
2022-10-09T13:01:35.499Z,80.10
2022-10-09T13:02:18.334Z,80.10
2022-10-09T13:02:50.548Z,80.50
2022-10-09T13:03:23.564Z,80.90
2022-10-09T13:04:03.298Z,80.60
2022-10-09T13:04:35.030Z,80.40
2022-10-09T13:05:07.090Z,80.30
2022-10-09T13:05:41.246Z,80.50
2022-10-09T13:06:19.613Z,80.50
2022-10-09T13:06:53.652Z,80.30
2022-10-09T13:07:29.152Z,80.40
2022-10-09T13:08:00.987Z,80.10
2022-10-09T13:08:37.518Z,80.40
2022-10-09T13:09:25.839Z,80.10
2022-10-09T13:10:32.374Z,80.00
2022-10-09T13:11:12.821Z,80.00
2022-10-09T13:11:45.643Z,79.80
2022-10-09T13:12:24.108Z,79.70
2022-10-09T13:12:58.785Z,79.70
2022-10-09T13:13:30.779Z,79.50
2022-10-09T13:14:02.786Z,79.50
2022-10-09T13:14:51.986Z,79.40
2022-10-09T13:15:33.392Z,79.30
2022-10-09T13:16:09.466Z,79.60
2022-10-09T13:16:43.891Z,79.10
2022-10-09T13:18:23.106Z,79.50
2022-10-09T13:19:03.261Z,78.70
2022-10-09T13:19:35.728Z,78.70
2022-10-09T13:20:16.633Z,78.50
2022-10-09T13:21:06.283Z,78.40
2022-10-09T13:21:38.065Z,78.00
2022-10-09T13:22:18.406Z,77.70
2022-10-09T13:22:59.178Z,77.60
2022-10-09T13:23:34.039Z,77.60
2022-10-09T13:24:13.411Z,77.50
2022-10-09T13:24:45.367Z,77.60
2022-10-09T13:25:17.133Z,77.30
2022-10-09T13:25:49.048Z,77.00
2022-10-09T13:26:27.863Z,77.20
2022-10-09T13:26:59.730Z,78.00
2022-10-09T13:28:06.137Z,77.50
2022-10-09T13:28:38.002Z,77.40
2022-10-09T13:29:13.255Z,77.30
2022-10-09T13:29:48.395Z,77.10
2022-10-09T13:30:20.232Z,77.20
2022-10-09T13:30:52.530Z,77.10
2022-10-09T13:31:24.573Z,77.20
2022-10-09T13:31:56.271Z,77.20
2022-10-09T13:32:28.066Z,77.20
2022-10-09T13:32:59.829Z,77.40
2022-10-09T13:33:31.573Z,77.60
2022-10-09T13:34:14.307Z,77.50
2022-10-09T13:34:47.302Z,79.20
2022-10-09T13:35:19.106Z,78.20
2022-10-09T13:35:50.965Z,78.40
2022-10-09T13:36:22.716Z,77.60
2022-10-09T13:36:54.894Z,77.80
2022-10-09T13:37:27.069Z,78.40
2022-10-09T13:37:58.873Z,77.60
2022-10-09T13:38:34.810Z,78.20
2022-10-09T13:39:06.937Z,77.10
2022-10-09T13:39:38.766Z,76.70
2022-10-09T13:40:18.065Z,77.00
2022-10-09T13:40:49.915Z,77.20
2022-10-09T13:41:25.238Z,76.80
2022-10-09T13:41:58.810Z,76.50
2022-10-09T13:42:36.538Z,76.50
2022-10-09T13:43:15.007Z,76.40
2022-10-09T13:43:47.967Z,76.30
2022-10-09T13:44:19.769Z,76.60
2022-10-09T13:44:51.591Z,76.60
2022-10-09T13:45:23.542Z,76.80
2022-10-09T13:45:55.822Z,76.40
2022-10-09T13:46:27.833Z,76.90
2022-10-09T13:47:00.016Z,76.40
2022-10-09T13:47:32.018Z,76.40
2022-10-09T13:48:37.638Z,76.50
2022-10-09T13:49:09.431Z,76.30
2022-10-09T13:49:41.501Z,76.40
2022-10-09T13:50:15.190Z,76.20
2022-10-09T13:50:47.065Z,75.90
2022-10-09T13:51:18.833Z,75.40
2022-10-09T13:51:50.642Z,75.30
2022-10-09T13:52:22.427Z,75.40
2022-10-09T13:52:54.165Z,75.50
2022-10-09T13:53:27.441Z,75.90
2022-10-09T13:53:59.737Z,75.80
2022-10-09T13:54:31.758Z,75.50
2022-10-09T13:55:05.212Z,75.30
2022-10-09T13:55:38.101Z,75.50
2022-10-09T13:56:09.984Z,75.30
2022-10-09T13:56:41.824Z,75.70
2022-10-09T13:57:13.627Z,75.60
2022-10-09T13:57:46.332Z,75.70
2022-10-09T13:58:18.127Z,75.70
2022-10-09T13:58:49.973Z,75.80
2022-10-09T13:59:21.947Z,75.80
2022-10-09T13:59:53.733Z,75.50
2022-10-09T14:00:25.659Z,75.60
2022-10-09T14:00:58.266Z,76.00
2022-10-09T14:01:30.202Z,75.60
2022-10-09T14:02:02.184Z,75.60
2022-10-09T14:02:33.958Z,75.20
2022-10-09T14:03:05.735Z,74.90
2022-10-09T14:03:37.577Z,74.90
2022-10-09T14:04:09.474Z,74.90
2022-10-09T14:04:41.332Z,75.10
2022-10-09T14:05:13.154Z,75.10
2022-10-09T14:06:18.876Z,75.10
2022-10-09T14:06:50.656Z,75.30
2022-10-09T14:07:22.434Z,75.20
2022-10-09T14:07:54.600Z,75.10
2022-10-09T14:08:27.269Z,75.10
2022-10-09T14:08:59.067Z,74.80
2022-10-09T14:09:31.182Z,74.90
2022-10-09T14:10:03.770Z,74.60
2022-10-09T14:10:35.560Z,74.50
2022-10-09T14:11:07.469Z,74.30
2022-10-09T14:11:39.244Z,74.00
2022-10-09T14:12:11.252Z,73.90